createdAt,value
2022-12-05T00:00:09.814Z,82.71
2022-12-05T00:03:13.783Z,82.47
2022-12-05T00:06:16.709Z,82.08
2022-12-05T00:09:22.064Z,81.79
2022-12-05T00:12:24.803Z,82.16
2022-12-05T00:18:50.835Z,82.48
2022-12-05T00:21:53.603Z,81.78
2022-12-05T00:24:58.962Z,81.69
2022-12-05T00:28:01.650Z,82.64
2022-12-05T00:31:06.561Z,82.56
2022-12-05T00:34:10.589Z,82.52
2022-12-05T00:37:13.273Z,82.40
2022-12-05T00:40:19.062Z,82.08
2022-12-05T00:43:21.766Z,82.07
2022-12-05T00:46:27.835Z,81.53
2022-12-05T00:49:30.617Z,81.65
2022-12-05T00:52:34.592Z,81.95
2022-12-05T00:55:39.218Z,82.46
2022-12-05T00:58:44.240Z,82.38
2022-12-05T01:01:49.660Z,82.27
2022-12-05T01:04:52.391Z,82.95
2022-12-05T01:07:56.390Z,82.11
2022-12-05T01:11:00.815Z,80.89
2022-12-05T01:14:05.208Z,81.15
2022-12-05T01:17:09.254Z,82.12
2022-12-05T01:20:14.018Z,82.50
2022-12-05T01:23:18.626Z,82.63
2022-12-05T01:26:23.855Z,82.34
2022-12-05T01:29:28.187Z,82.13
2022-12-05T01:32:30.926Z,81.73
2022-12-05T01:35:35.589Z,81.97
2022-12-05T01:38:40.581Z,83.01
2022-12-05T01:41:46.968Z,82.44
2022-12-05T01:45:09.641Z,82.31
2022-12-05T01:48:16.119Z,82.56
2022-12-05T01:51:20.417Z,82.05
2022-12-05T01:54:24.211Z,82.54
2022-12-05T01:57:29.749Z,82.29
2022-12-05T02:00:33.698Z,82.57
2022-12-05T02:03:38.588Z,82.52
2022-12-05T02:07:02.012Z,81.97
2022-12-05T02:10:05.490Z,81.77
2022-12-05T02:13:23.038Z,81.73
2022-12-05T02:16:38.472Z,82.38
2022-12-05T02:19:57.261Z,82.69
2022-12-05T02:23:26.820Z,82.31
2022-12-05T02:26:58.212Z,82.82
2022-12-05T02:30:08.949Z,82.00
2022-12-05T02:33:21.537Z,81.57
2022-12-05T02:36:29.880Z,81.51
2022-12-05T02:39:44.153Z,81.91
2022-12-05T02:42:52.372Z,82.47
2022-12-05T02:46:02.148Z,83.10
2022-12-05T02:49:10.941Z,82.10
2022-12-05T02:52:16.288Z,81.48
2022-12-05T02:55:22.902Z,82.68
2022-12-05T02:58:32.101Z,81.63
2022-12-05T03:01:37.497Z,81.77
2022-12-05T03:04:41.645Z,82.14
2022-12-05T03:07:47.989Z,82.09
2022-12-05T03:10:53.890Z,81.44
2022-12-05T03:14:02.060Z,81.91
2022-12-05T03:17:10.544Z,82.96
2022-12-05T03:20:23.101Z,81.80
2022-12-05T03:23:33.475Z,82.09
2022-12-05T03:26:50.827Z,81.64
2022-12-05T03:29:59.754Z,82.31
2022-12-05T03:33:08.995Z,80.68
2022-12-05T03:36:18.189Z,80.39
2022-12-05T03:39:26.460Z,81.85
2022-12-05T03:42:34.555Z,82.43
2022-12-05T03:45:45.698Z,81.90
2022-12-05T03:48:58.699Z,81.81
2022-12-05T03:52:08.859Z,81.64
2022-12-05T03:55:15.961Z,82.26
2022-12-05T03:58:25.626Z,81.94
2022-12-05T04:01:33.060Z,82.21
2022-12-05T04:04:40.890Z,80.27
2022-12-05T04:07:48.570Z,79.83
2022-12-05T04:10:55.818Z,80.34
2022-12-05T04:14:03.347Z,81.05
2022-12-05T04:17:10.492Z,79.51
2022-12-05T04:20:35.821Z,81.20
2022-12-05T04:23:42.387Z,81.18
2022-12-05T04:26:57.720Z,80.89
2022-12-05T04:30:04.741Z,80.26
2022-12-05T04:33:12.861Z,80.28
2022-12-05T04:36:22.708Z,80.12
2022-12-05T04:39:30.297Z,79.81
2022-12-05T04:42:37.772Z,80.75
2022-12-05T04:45:42.495Z,81.36
2022-12-05T04:48:51.280Z,81.41
2022-12-05T04:51:58.353Z,80.12
2022-12-05T04:55:08.344Z,79.86
2022-12-05T04:58:14.956Z,81.38
2022-12-05T05:01:23.948Z,81.24
2022-12-05T05:04:32.357Z,81.25
2022-12-05T05:07:45.622Z,81.39
2022-12-05T05:10:57.891Z,81.16
2022-12-05T05:14:02.551Z,80.44
2022-12-05T05:17:05.518Z,79.72
2022-12-05T05:20:24.548Z,79.40
2022-12-05T05:23:28.619Z,80.29
2022-12-05T05:26:33.883Z,80.21
2022-12-05T05:29:37.875Z,80.46
2022-12-05T05:32:40.564Z,80.84
2022-12-05T05:35:44.578Z,80.49
2022-12-05T05:38:50.280Z,80.18
2022-12-05T05:41:54.242Z,80.15
2022-12-05T05:44:56.953Z,79.59
2022-12-05T05:48:00.904Z,80.46
2022-12-05T05:51:07.230Z,80.58
2022-12-05T05:54:11.542Z,80.89
2022-12-05T05:57:20.205Z,81.33
2022-12-05T06:00:23.436Z,81.15
2022-12-05T06:03:27.564Z,80.37
2022-12-05T06:06:30.432Z,81.03
2022-12-05T06:09:34.535Z,80.98
2022-12-05T06:12:38.530Z,80.28
2022-12-05T06:15:41.228Z,79.24
2022-12-05T06:18:45.442Z,80.57
2022-12-05T06:21:50.187Z,80.59
2022-12-05T06:24:55.485Z,80.25
2022-12-05T06:27:58.242Z,80.44
2022-12-05T06:31:02.199Z,80.99
2022-12-05T06:34:05.879Z,80.67
2022-12-05T06:37:10.150Z,80.98
2022-12-05T06:40:16.898Z,81.69
2022-12-05T06:43:20.858Z,80.67
2022-12-05T06:46:25.139Z,80.27
2022-12-05T06:49:37.692Z,78.16
2022-12-05T06:52:40.848Z,79.58
2022-12-05T06:55:46.240Z,79.47
2022-12-05T06:58:50.817Z,80.91
2022-12-05T07:01:54.822Z,79.70
2022-12-05T07:04:57.672Z,79.41
2022-12-05T07:08:01.649Z,80.38
2022-12-05T07:11:05.904Z,80.52
2022-12-05T07:14:31.211Z,79.33
2022-12-05T07:17:37.648Z,80.33
2022-12-05T07:21:10.758Z,81.36
2022-12-05T07:24:06.170Z,81.26
2022-12-05T07:27:10.254Z,81.14
2022-12-05T07:30:14.708Z,80.61
2022-12-05T07:33:17.420Z,80.05
2022-12-05T07:36:23.614Z,81.17
2022-12-05T07:39:26.332Z,81.45
2022-12-05T07:49:15.751Z,81.14
2022-12-05T07:52:19.797Z,80.52
2022-12-05T07:55:22.511Z,80.79
2022-12-05T07:58:27.844Z,80.37
2022-12-05T08:01:32.208Z,80.48
2022-12-05T08:04:34.904Z,81.36
2022-12-05T08:07:37.639Z,81.21
2022-12-05T08:10:40.431Z,81.14
2022-12-05T08:13:46.137Z,79.80
2022-12-05T08:16:48.921Z,80.04
2022-12-05T08:19:53.026Z,80.21
2022-12-05T08:22:55.726Z,80.75
2022-12-05T08:26:04.101Z,81.06
2022-12-05T08:29:12.323Z,80.61
2022-12-05T08:32:15.008Z,80.71
2022-12-05T08:35:19.138Z,80.01
2022-12-05T08:38:21.871Z,80.46
2022-12-05T08:41:29.670Z,80.50
2022-12-05T08:44:34.979Z,80.18
2022-12-05T08:47:37.733Z,80.75
2022-12-05T08:50:41.878Z,79.78
2022-12-05T08:53:45.051Z,80.80
2022-12-05T08:56:49.096Z,80.67
2022-12-05T08:59:53.165Z,79.85
2022-12-05T09:02:57.348Z,80.21
2022-12-05T09:06:07.161Z,79.97
2022-12-05T09:09:12.832Z,80.68
2022-12-05T09:12:16.885Z,81.13
2022-12-05T09:15:21.144Z,81.35
2022-12-05T09:18:25.138Z,80.54
2022-12-05T09:24:53.559Z,80.14
2022-12-05T09:31:22.625Z,80.31
2022-12-05T09:34:27.220Z,81.48
2022-12-05T09:37:39.395Z,80.79
2022-12-05T09:40:44.155Z,79.98
2022-12-05T09:43:53.666Z,80.10
2022-12-05T09:47:03.138Z,79.41
2022-12-05T09:50:15.480Z,80.05
2022-12-05T09:53:29.656Z,80.89
2022-12-05T09:56:32.439Z,79.23
2022-12-05T09:59:37.530Z,80.68
2022-12-05T10:02:52.822Z,80.91
2022-12-05T10:06:06.887Z,81.17
2022-12-05T10:09:28.552Z,81.18
2022-12-05T10:12:49.075Z,81.21
2022-12-05T10:15:57.417Z,80.33
2022-12-05T10:19:07.856Z,80.31
2022-12-05T10:22:20.406Z,81.17
2022-12-05T10:25:28.504Z,80.92
2022-12-05T10:28:37.154Z,80.46
2022-12-05T10:31:43.204Z,80.48
2022-12-05T10:34:47.995Z,81.33
2022-12-05T10:37:55.036Z,79.79
2022-12-05T10:41:03.774Z,80.84
2022-12-05T10:44:08.038Z,81.41
2022-12-05T10:47:12.432Z,80.68
2022-12-05T10:50:26.166Z,81.43
2022-12-05T10:53:34.357Z,81.34
2022-12-05T10:56:40.914Z,81.66
2022-12-05T10:59:47.578Z,80.76
2022-12-05T11:02:52.550Z,80.38
2022-12-05T11:05:59.782Z,80.83
2022-12-05T11:09:07.047Z,81.02
2022-12-05T11:12:20.339Z,81.38
2022-12-05T11:15:25.798Z,81.21
2022-12-05T11:18:33.088Z,80.52
2022-12-05T11:21:44.839Z,80.32
2022-12-05T11:24:47.573Z,79.47
2022-12-05T11:27:51.567Z,81.09
2022-12-05T11:31:00.040Z,80.72
2022-12-05T11:34:12.601Z,80.78
2022-12-05T11:37:24.735Z,80.94
2022-12-05T11:40:38.503Z,81.57
2022-12-05T11:43:55.871Z,81.31
2022-12-05T11:50:42.220Z,81.73
2022-12-05T11:54:35.920Z,81.56
2022-12-05T11:58:00.506Z,81.38
2022-12-05T12:01:14.365Z,81.85
2022-12-05T12:04:47.446Z,81.97
2022-12-05T12:08:03.581Z,81.68
2022-12-05T12:11:15.275Z,81.96
2022-12-05T12:14:27.530Z,81.47
2022-12-05T12:17:37.780Z,81.64
2022-12-05T12:20:57.612Z,81.91
2022-12-05T12:24:15.493Z,81.04
2022-12-05T12:27:29.287Z,80.76
2022-12-05T12:30:49.413Z,81.53
2022-12-05T12:33:59.391Z,81.25
2022-12-05T12:37:10.797Z,80.69
2022-12-05T12:43:55.909Z,81.13
2022-12-05T12:47:03.608Z,80.94
2022-12-05T12:50:15.851Z,80.93
2022-12-05T12:53:50.392Z,81.55
2022-12-05T12:57:03.536Z,81.25
2022-12-05T13:00:18.507Z,80.95
2022-12-05T13:03:25.308Z,81.55
2022-12-05T13:06:33.365Z,80.81
2022-12-05T13:09:46.117Z,81.13
2022-12-05T13:12:52.796Z,80.96
2022-12-05T13:16:02.068Z,80.69
2022-12-05T13:19:07.307Z,81.84
2022-12-05T13:22:12.239Z,81.11
2022-12-05T13:25:17.280Z,81.37
2022-12-05T13:28:31.858Z,81.37
2022-12-05T13:31:41.969Z,80.96
2022-12-05T13:34:51.716Z,81.54
2022-12-05T13:38:11.801Z,81.38
2022-12-05T13:41:33.893Z,81.50
2022-12-05T13:44:42.205Z,81.83
2022-12-05T13:47:57.047Z,80.76
2022-12-05T13:51:05.715Z,81.96
2022-12-05T13:54:17.149Z,82.45
2022-12-05T13:57:55.277Z,82.13
2022-12-05T14:01:38.102Z,81.64
2022-12-05T14:04:51.457Z,82.13
2022-12-05T14:11:19.246Z,81.60
2022-12-05T14:15:00.622Z,82.05
2022-12-05T14:18:11.631Z,81.75
2022-12-05T14:21:21.568Z,81.96
2022-12-05T14:24:34.190Z,81.87
2022-12-05T14:27:50.907Z,82.23
2022-12-05T14:31:10.307Z,81.94
2022-12-05T14:34:25.972Z,81.85
2022-12-05T14:37:32.819Z,81.81
2022-12-05T14:40:39.213Z,82.32
2022-12-05T14:43:43.753Z,82.48
2022-12-05T14:46:46.807Z,82.48
2022-12-05T14:49:56.840Z,81.94
2022-12-05T14:53:28.974Z,81.70
2022-12-05T14:56:36.288Z,81.60
2022-12-05T15:03:24.650Z,81.86
2022-12-05T15:06:28.039Z,81.62
2022-12-05T15:09:53.418Z,81.78
2022-12-05T15:12:59.340Z,82.23
2022-12-05T15:16:08.541Z,81.77
2022-12-05T15:19:18.796Z,81.78
2022-12-05T15:22:25.450Z,81.99
2022-12-05T15:25:33.619Z,81.75
2022-12-05T15:28:36.471Z,81.75
2022-12-05T15:31:46.585Z,81.79
2022-12-05T15:34:54.844Z,81.88
2022-12-05T15:38:01.341Z,81.96
2022-12-05T15:41:05.661Z,82.20
2022-12-05T15:44:09.638Z,81.67
2022-12-05T15:47:22.941Z,82.08
2022-12-05T15:50:33.804Z,82.25
2022-12-05T15:53:43.340Z,82.17
2022-12-05T15:56:52.007Z,82.16
2022-12-05T16:00:03.673Z,82.08
2022-12-05T16:03:15.244Z,81.89
2022-12-05T16:06:21.812Z,82.21
2022-12-05T16:09:29.847Z,82.19
2022-12-05T16:12:40.490Z,82.14
2022-12-05T16:15:52.278Z,82.47
2022-12-05T16:18:59.682Z,81.18
2022-12-05T16:25:33.052Z,81.79
2022-12-05T16:28:38.621Z,82.00
2022-12-05T16:31:42.084Z,81.98
2022-12-05T16:34:46.697Z,82.01
2022-12-05T16:37:50.672Z,82.17
2022-12-05T16:40:59.316Z,82.40
2022-12-05T16:44:11.450Z,82.52
2022-12-05T16:47:24.932Z,82.36
2022-12-05T16:50:33.977Z,82.32
2022-12-05T16:53:37.653Z,82.24
2022-12-05T16:56:42.643Z,82.26
2022-12-05T16:59:49.357Z,82.83
2022-12-05T17:02:55.416Z,82.36
2022-12-05T17:05:59.703Z,82.42
2022-12-05T17:09:02.442Z,82.24
2022-12-05T17:12:13.784Z,82.10
2022-12-05T17:15:20.648Z,82.13
2022-12-05T17:18:30.965Z,82.57
2022-12-05T17:21:35.593Z,82.05
2022-12-05T17:24:39.531Z,82.42
2022-12-05T17:27:42.992Z,81.92
2022-12-05T17:30:48.420Z,83.03
2022-12-05T17:33:53.678Z,82.24
2022-12-05T17:36:57.710Z,81.14
2022-12-05T17:40:01.861Z,81.66
2022-12-05T17:43:05.715Z,82.12
2022-12-05T17:46:12.007Z,81.85
2022-12-05T17:49:15.259Z,81.98
2022-12-05T17:55:40.200Z,82.19
2022-12-05T17:58:44.228Z,82.25
2022-12-05T18:01:48.309Z,82.25
2022-12-05T18:04:52.365Z,82.23
2022-12-05T18:07:55.202Z,82.42
2022-12-05T18:10:59.516Z,82.64
2022-12-05T18:14:02.239Z,82.84
2022-12-05T18:17:07.626Z,82.80
2022-12-05T18:20:13.116Z,82.63
2022-12-05T18:23:17.093Z,83.00
2022-12-05T18:26:19.922Z,82.42
2022-12-05T18:29:23.978Z,82.59
2022-12-05T18:32:28.445Z,82.44
2022-12-05T18:35:44.644Z,82.87
2022-12-05T18:38:52.984Z,82.54
2022-12-05T18:41:55.757Z,82.30
2022-12-05T18:45:00.026Z,82.73
2022-12-05T18:48:23.416Z,82.88
2022-12-05T18:51:29.689Z,83.08
2022-12-05T18:54:33.623Z,82.54
2022-12-05T18:57:36.352Z,83.10
2022-12-05T19:00:40.334Z,83.02
2022-12-05T19:03:44.442Z,82.88
2022-12-05T19:06:53.152Z,83.45
2022-12-05T19:09:57.173Z,83.03
2022-12-05T19:13:01.090Z,83.14
2022-12-05T19:16:04.202Z,82.87
2022-12-05T19:19:12.566Z,83.05
2022-12-05T19:22:16.529Z,83.36
2022-12-05T19:25:19.220Z,82.60
2022-12-05T19:28:23.295Z,83.42
2022-12-05T19:31:29.056Z,83.23
2022-12-05T19:34:34.793Z,82.98
2022-12-05T19:37:38.730Z,83.32
2022-12-05T19:40:42.665Z,82.65
2022-12-05T19:43:45.708Z,82.62
2022-12-05T19:46:51.155Z,83.83
2022-12-05T19:49:55.223Z,83.62
2022-12-05T19:52:59.378Z,83.00
2022-12-05T19:56:02.762Z,83.97
2022-12-05T19:59:08.297Z,83.23
2022-12-05T20:02:11.110Z,82.87
2022-12-05T20:05:17.031Z,83.42
2022-12-05T20:08:19.797Z,83.82
2022-12-05T20:11:26.348Z,83.12
2022-12-05T20:14:30.302Z,82.70
2022-12-05T20:17:33.072Z,81.76
2022-12-05T20:20:38.395Z,82.08
2022-12-05T20:23:41.450Z,83.38
2022-12-05T20:26:46.599Z,82.34
2022-12-05T20:29:50.857Z,83.63
2022-12-05T20:32:53.568Z,83.15
2022-12-05T20:36:02.837Z,83.65
2022-12-05T20:39:07.726Z,83.06
2022-12-05T20:42:11.787Z,83.02
2022-12-05T20:45:14.504Z,83.88
2022-12-05T20:48:18.449Z,83.63
2022-12-05T20:51:24.377Z,83.09
2022-12-05T20:54:28.427Z,83.43
2022-12-05T20:57:33.088Z,82.82
2022-12-05T21:00:37.072Z,82.66
2022-12-05T21:03:42.125Z,82.59
2022-12-05T21:06:48.251Z,83.06
2022-12-05T21:09:50.971Z,82.78
2022-12-05T21:12:54.934Z,82.68
2022-12-05T21:15:57.677Z,82.47
2022-12-05T21:19:02.186Z,82.56
2022-12-05T21:22:06.392Z,83.47
2022-12-05T21:25:10.409Z,82.59
2022-12-05T21:28:13.099Z,82.94
2022-12-05T21:31:19.871Z,83.18
2022-12-05T21:34:22.935Z,83.47
2022-12-05T21:37:28.296Z,83.48
2022-12-05T21:40:30.985Z,83.04
2022-12-05T21:43:37.427Z,82.57
2022-12-05T21:46:41.411Z,81.93
2022-12-05T21:49:44.128Z,82.40
2022-12-05T21:52:49.468Z,82.20
2022-12-05T21:56:00.258Z,82.62
2022-12-05T21:59:04.359Z,82.24
2022-12-05T22:02:07.095Z,82.98
2022-12-05T22:05:11.840Z,82.69
2022-12-05T22:08:16.355Z,82.03
2022-12-05T22:11:22.796Z,82.68
2022-12-05T22:14:26.788Z,82.10
2022-12-05T22:17:29.466Z,82.50
2022-12-05T22:20:33.433Z,82.54
2022-12-05T22:23:37.497Z,83.56
2022-12-05T22:26:41.481Z,82.92
2022-12-05T22:29:49.799Z,82.83
2022-12-05T22:32:55.187Z,83.38
2022-12-05T22:36:01.071Z,82.77
2022-12-05T22:45:49.340Z,82.68
2022-12-05T22:48:52.797Z,82.48
2022-12-05T22:51:56.791Z,82.09
2022-12-05T22:55:01.163Z,81.94
2022-12-05T22:58:05.231Z,82.91
2022-12-05T23:01:12.454Z,82.22
2022-12-05T23:07:38.328Z,81.94
2022-12-05T23:10:42.453Z,82.53
2022-12-05T23:13:47.273Z,82.51
2022-12-05T23:16:50.022Z,82.68
2022-12-05T23:19:53.935Z,82.91
2022-12-05T23:22:57.227Z,83.33
2022-12-05T23:26:02.929Z,82.71
2022-12-05T23:29:07.257Z,83.65
2022-12-05T23:32:09.978Z,83.02
2022-12-05T23:35:13.928Z,82.67
2022-12-05T23:38:16.638Z,83.22
2022-12-05T23:41:23.522Z,82.83
2022-12-05T23:44:26.416Z,83.40
2022-12-05T23:47:30.778Z,83.31
2022-12-05T23:50:33.485Z,83.10
2022-12-05T23:53:39.602Z,82.90
2022-12-05T23:56:44.946Z,82.36
2022-12-05T23:59:47.662Z,81.51
